sensor_id;sensor_type;location;lat;lon;timestamp;P1;durP1;ratioP1;P2;durP2;ratioP2
62268;SDS011;56517;51.634;5.566;2022-08-19T00:03:00;29.50;;;21.05;;
62268;SDS011;56517;51.634;5.566;2022-08-19T00:08:02;30.02;;;18.73;;
62268;SDS011;56517;51.634;5.566;2022-08-19T00:13:03;25.52;;;17.65;;
62268;SDS011;56517;51.634;5.566;2022-08-19T00:18:03;28.30;;;18.63;;
62268;SDS011;56517;51.634;5.566;2022-08-19T00:23:05;29.70;;;20.50;;
62268;SDS011;56517;51.634;5.566;2022-08-19T00:28:06;28.98;;;19.27;;
62268;SDS011;56517;51.634;5.566;2022-08-19T00:33:07;31.00;;;19.40;;
62268;SDS011;56517;51.634;5.566;2022-08-19T00:38:09;33.97;;;21.33;;
62268;SDS011;56517;51.634;5.566;2022-08-19T00:43:09;34.05;;;21.00;;
62268;SDS011;56517;51.634;5.566;2022-08-19T00:48:10;30.27;;;19.60;;
62268;SDS011;56517;51.634;5.566;2022-08-19T00:53:13;20.45;;;14.15;;
62268;SDS011;56517;51.634;5.566;2022-08-19T00:58:15;18.00;;;13.57;;
62268;SDS011;56517;51.634;5.566;2022-08-19T01:03:18;18.52;;;14.40;;
62268;SDS011;56517;51.634;5.566;2022-08-19T01:08:20;23.30;;;15.73;;
62268;SDS011;56517;51.634;5.566;2022-08-19T01:13:21;25.98;;;17.17;;
62268;SDS011;56517;51.634;5.566;2022-08-19T01:18:24;27.25;;;17.30;;
62268;SDS011;56517;51.634;5.566;2022-08-19T01:23:26;28.55;;;17.50;;
62268;SDS011;56517;51.634;5.566;2022-08-19T01:28:27;33.58;;;19.60;;
62268;SDS011;56517;51.634;5.566;2022-08-19T01:33:27;34.10;;;20.70;;
62268;SDS011;56517;51.634;5.566;2022-08-19T01:38:29;34.53;;;20.10;;
62268;SDS011;56517;51.634;5.566;2022-08-19T01:43:30;36.13;;;20.52;;
62268;SDS011;56517;51.634;5.566;2022-08-19T01:48:34;33.72;;;18.70;;
62268;SDS011;56517;51.634;5.566;2022-08-19T01:53:36;35.90;;;20.67;;
62268;SDS011;56517;51.634;5.566;2022-08-19T01:58:39;33.58;;;19.27;;
62268;SDS011;56517;51.634;5.566;2022-08-19T02:03:41;33.13;;;19.55;;
62268;SDS011;56517;51.634;5.566;2022-08-19T02:08:43;28.00;;;17.27;;
62268;SDS011;56517;51.634;5.566;2022-08-19T02:13:43;21.40;;;14.70;;
62268;SDS011;56517;51.634;5.566;2022-08-19T02:18:44;22.55;;;14.43;;
62268;SDS011;56517;51.634;5.566;2022-08-19T02:23:46;29.77;;;18.25;;
62268;SDS011;56517;51.634;5.566;2022-08-19T02:28:47;30.52;;;19.70;;
62268;SDS011;56517;51.634;5.566;2022-08-19T02:33:48;35.88;;;21.23;;
62268;SDS011;56517;51.634;5.566;2022-08-19T02:38:50;37.17;;;21.52;;
62268;SDS011;56517;51.634;5.566;2022-08-19T02:43:50;38.92;;;21.77;;
62268;SDS011;56517;51.634;5.566;2022-08-19T02:48:52;41.85;;;22.33;;
62268;SDS011;56517;51.634;5.566;2022-08-19T02:53:54;35.05;;;20.92;;
62268;SDS011;56517;51.634;5.566;2022-08-19T02:58:55;35.95;;;21.75;;
62268;SDS011;56517;51.634;5.566;2022-08-19T03:03:55;42.25;;;22.90;;
62268;SDS011;56517;51.634;5.566;2022-08-19T03:08:58;37.28;;;21.42;;
62268;SDS011;56517;51.634;5.566;2022-08-19T03:13:58;34.40;;;20.88;;
62268;SDS011;56517;51.634;5.566;2022-08-19T03:19:00;35.35;;;18.20;;
62268;SDS011;56517;51.634;5.566;2022-08-19T03:24:04;26.73;;;14.80;;
62268;SDS011;56517;51.634;5.566;2022-08-19T03:29:05;25.13;;;16.63;;
62268;SDS011;56517;51.634;5.566;2022-08-19T03:34:06;32.92;;;19.77;;
62268;SDS011;56517;51.634;5.566;2022-08-19T03:39:09;34.85;;;18.35;;
62268;SDS011;56517;51.634;5.566;2022-08-19T03:44:09;31.77;;;18.45;;
62268;SDS011;56517;51.634;5.566;2022-08-19T03:49:10;32.85;;;18.88;;
62268;SDS011;56517;51.634;5.566;2022-08-19T03:54:13;37.70;;;20.13;;
62268;SDS011;56517;51.634;5.566;2022-08-19T03:59:16;40.60;;;20.90;;
62268;SDS011;56517;51.634;5.566;2022-08-19T04:04:18;33.67;;;18.88;;
62268;SDS011;56517;51.634;5.566;2022-08-19T04:09:20;31.27;;;18.50;;
62268;SDS011;56517;51.634;5.566;2022-08-19T04:14:22;32.63;;;18.15;;
62268;SDS011;56517;51.634;5.566;2022-08-19T04:19:22;33.65;;;17.20;;
62268;SDS011;56517;51.634;5.566;2022-08-19T04:24:24;29.05;;;17.98;;
62268;SDS011;56517;51.634;5.566;2022-08-19T04:29:25;36.35;;;20.20;;
62268;SDS011;56517;51.634;5.566;2022-08-19T04:34:27;32.08;;;18.77;;
62268;SDS011;56517;51.634;5.566;2022-08-19T04:39:29;44.35;;;21.42;;
62268;SDS011;56517;51.634;5.566;2022-08-19T04:44:31;37.40;;;20.33;;
62268;SDS011;56517;51.634;5.566;2022-08-19T04:49:31;43.17;;;22.25;;
62268;SDS011;56517;51.634;5.566;2022-08-19T04:54:33;57.65;;;21.00;;
62268;SDS011;56517;51.634;5.566;2022-08-19T04:59:34;57.33;;;20.90;;
62268;SDS011;56517;51.634;5.566;2022-08-19T05:04:35;40.60;;;20.20;;
62268;SDS011;56517;51.634;5.566;2022-08-19T05:09:37;40.65;;;21.58;;
62268;SDS011;56517;51.634;5.566;2022-08-19T05:14:38;39.85;;;21.75;;
62268;SDS011;56517;51.634;5.566;2022-08-19T05:19:38;47.40;;;24.80;;
62268;SDS011;56517;51.634;5.566;2022-08-19T05:24:40;45.33;;;22.38;;
62268;SDS011;56517;51.634;5.566;2022-08-19T05:29:41;37.63;;;20.83;;
62268;SDS011;56517;51.634;5.566;2022-08-19T05:34:41;46.95;;;24.35;;
62268;SDS011;56517;51.634;5.566;2022-08-19T05:39:43;62.28;;;30.77;;
62268;SDS011;56517;51.634;5.566;2022-08-19T05:44:44;73.45;;;33.95;;
62268;SDS011;56517;51.634;5.566;2022-08-19T05:49:44;86.45;;;37.13;;
62268;SDS011;56517;51.634;5.566;2022-08-19T05:54:46;90.22;;;41.55;;
62268;SDS011;56517;51.634;5.566;2022-08-19T05:59:47;93.60;;;38.95;;
62268;SDS011;56517;51.634;5.566;2022-08-19T06:04:47;81.80;;;37.53;;
62268;SDS011;56517;51.634;5.566;2022-08-19T06:09:50;84.03;;;37.63;;
62268;SDS011;56517;51.634;5.566;2022-08-19T06:14:51;80.25;;;35.47;;
62268;SDS011;56517;51.634;5.566;2022-08-19T06:19:51;86.00;;;38.20;;
62268;SDS011;56517;51.634;5.566;2022-08-19T06:24:53;78.47;;;35.72;;
62268;SDS011;56517;51.634;5.566;2022-08-19T06:29:54;77.85;;;35.70;;
62268;SDS011;56517;51.634;5.566;2022-08-19T06:34:54;73.43;;;33.58;;
62268;SDS011;56517;51.634;5.566;2022-08-19T06:39:56;72.10;;;34.60;;
62268;SDS011;56517;51.634;5.566;2022-08-19T06:44:57;76.93;;;32.63;;
62268;SDS011;56517;51.634;5.566;2022-08-19T06:49:58;82.85;;;35.58;;
62268;SDS011;56517;51.634;5.566;2022-08-19T06:55:00;79.10;;;31.63;;
62268;SDS011;56517;51.634;5.566;2022-08-19T07:00:01;75.07;;;37.08;;
62268;SDS011;56517;51.634;5.566;2022-08-19T07:05:02;68.35;;;31.38;;
62268;SDS011;56517;51.634;5.566;2022-08-19T07:10:05;65.45;;;32.22;;
62268;SDS011;56517;51.634;5.566;2022-08-19T07:15:06;69.43;;;32.53;;
62268;SDS011;56517;51.634;5.566;2022-08-19T07:20:07;62.88;;;31.45;;
62268;SDS011;56517;51.634;5.566;2022-08-19T07:25:09;72.45;;;35.15;;
62268;SDS011;56517;51.634;5.566;2022-08-19T07:30:10;62.42;;;33.83;;
62268;SDS011;56517;51.634;5.566;2022-08-19T07:35:11;59.95;;;28.45;;
62268;SDS011;56517;51.634;5.566;2022-08-19T07:40:13;55.20;;;30.65;;
62268;SDS011;56517;51.634;5.566;2022-08-19T07:45:14;63.53;;;30.42;;
62268;SDS011;56517;51.634;5.566;2022-08-19T07:50:14;64.45;;;31.27;;
62268;SDS011;56517;51.634;5.566;2022-08-19T07:55:17;55.38;;;29.98;;
62268;SDS011;56517;51.634;5.566;2022-08-19T08:00:18;58.92;;;33.75;;
62268;SDS011;56517;51.634;5.566;2022-08-19T08:05:18;60.28;;;30.67;;
62268;SDS011;56517;51.634;5.566;2022-08-19T08:10:20;61.10;;;34.13;;
62268;SDS011;56517;51.634;5.566;2022-08-19T08:15:21;58.53;;;31.20;;
62268;SDS011;56517;51.634;5.566;2022-08-19T08:20:21;56.65;;;33.72;;
62268;SDS011;56517;51.634;5.566;2022-08-19T08:25:23;50.38;;;27.58;;
62268;SDS011;56517;51.634;5.566;2022-08-19T08:30:24;55.60;;;27.67;;
62268;SDS011;56517;51.634;5.566;2022-08-19T08:35:25;54.25;;;27.88;;
62268;SDS011;56517;51.634;5.566;2022-08-19T08:40:28;52.15;;;27.92;;
62268;SDS011;56517;51.634;5.566;2022-08-19T08:45:30;53.50;;;29.42;;
62268;SDS011;56517;51.634;5.566;2022-08-19T08:50:32;52.90;;;27.17;;
62268;SDS011;56517;51.634;5.566;2022-08-19T08:55:35;54.15;;;27.63;;
62268;SDS011;56517;51.634;5.566;2022-08-19T09:00:37;51.28;;;29.50;;
62268;SDS011;56517;51.634;5.566;2022-08-19T09:05:39;60.17;;;33.45;;
62268;SDS011;56517;51.634;5.566;2022-08-19T09:10:44;45.38;;;27.00;;
62268;SDS011;56517;51.634;5.566;2022-08-19T09:15:47;53.28;;;29.20;;
62268;SDS011;56517;51.634;5.566;2022-08-19T09:20:48;47.50;;;27.00;;
62268;SDS011;56517;51.634;5.566;2022-08-19T09:25:50;49.83;;;28.00;;
62268;SDS011;56517;51.634;5.566;2022-08-19T09:30:50;46.85;;;27.67;;
62268;SDS011;56517;51.634;5.566;2022-08-19T09:36:00;49.08;;;30.17;;
62268;SDS011;56517;51.634;5.566;2022-08-19T09:41:03;56.15;;;27.52;;
62268;SDS011;56517;51.634;5.566;2022-08-19T09:46:05;52.35;;;29.10;;
62268;SDS011;56517;51.634;5.566;2022-08-19T09:51:06;59.00;;;28.50;;
62268;SDS011;56517;51.634;5.566;2022-08-19T09:56:08;50.28;;;29.17;;
62268;SDS011;56517;51.634;5.566;2022-08-19T10:01:09;51.50;;;28.83;;
62268;SDS011;56517;51.634;5.566;2022-08-19T10:06:09;48.15;;;26.58;;
62268;SDS011;56517;51.634;5.566;2022-08-19T10:11:11;47.83;;;26.35;;
62268;SDS011;56517;51.634;5.566;2022-08-19T10:16:13;52.90;;;27.77;;
62268;SDS011;56517;51.634;5.566;2022-08-19T10:21:15;47.92;;;26.60;;
62268;SDS011;56517;51.634;5.566;2022-08-19T10:26:19;50.85;;;25.55;;
62268;SDS011;56517;51.634;5.566;2022-08-19T10:31:21;49.05;;;26.58;;
62268;SDS011;56517;51.634;5.566;2022-08-19T10:36:22;55.85;;;29.30;;
62268;SDS011;56517;51.634;5.566;2022-08-19T10:41:26;51.75;;;28.13;;
62268;SDS011;56517;51.634;5.566;2022-08-19T10:46:27;53.67;;;27.70;;
62268;SDS011;56517;51.634;5.566;2022-08-19T10:51:28;54.95;;;26.67;;
62268;SDS011;56517;51.634;5.566;2022-08-19T10:56:30;37.65;;;21.50;;
62268;SDS011;56517;51.634;5.566;2022-08-19T11:01:31;42.38;;;23.83;;
62268;SDS011;56517;51.634;5.566;2022-08-19T11:06:32;45.17;;;25.00;;
62268;SDS011;56517;51.634;5.566;2022-08-19T11:11:34;51.38;;;26.20;;
62268;SDS011;56517;51.634;5.566;2022-08-19T11:16:35;48.72;;;27.73;;
62268;SDS011;56517;51.634;5.566;2022-08-19T11:21:37;55.70;;;31.63;;
62268;SDS011;56517;51.634;5.566;2022-08-19T11:26:39;42.17;;;25.50;;
62268;SDS011;56517;51.634;5.566;2022-08-19T11:31:41;44.50;;;25.80;;
62268;SDS011;56517;51.634;5.566;2022-08-19T11:36:43;41.35;;;25.50;;
62268;SDS011;56517;51.634;5.566;2022-08-19T11:41:45;42.53;;;24.33;;
62268;SDS011;56517;51.634;5.566;2022-08-19T11:46:46;39.25;;;23.27;;
62268;SDS011;56517;51.634;5.566;2022-08-19T11:51:47;34.42;;;19.10;;
62268;SDS011;56517;51.634;5.566;2022-08-19T11:56:49;40.05;;;20.88;;
62268;SDS011;56517;51.634;5.566;2022-08-19T12:01:49;28.25;;;17.70;;
62268;SDS011;56517;51.634;5.566;2022-08-19T12:06:50;26.92;;;18.30;;
62268;SDS011;56517;51.634;5.566;2022-08-19T12:11:52;36.15;;;17.77;;
62268;SDS011;56517;51.634;5.566;2022-08-19T12:16:53;27.30;;;18.13;;
62268;SDS011;56517;51.634;5.566;2022-08-19T12:21:54;27.85;;;18.20;;
62268;SDS011;56517;51.634;5.566;2022-08-19T12:26:59;35.03;;;19.25;;
62268;SDS011;56517;51.634;5.566;2022-08-19T12:32:00;34.90;;;19.08;;
62268;SDS011;56517;51.634;5.566;2022-08-19T12:37:01;31.67;;;18.30;;
62268;SDS011;56517;51.634;5.566;2022-08-19T12:42:04;30.08;;;19.48;;
62268;SDS011;56517;51.634;5.566;2022-08-19T12:47:04;26.77;;;17.48;;
62268;SDS011;56517;51.634;5.566;2022-08-19T12:52:06;29.58;;;16.90;;
62268;SDS011;56517;51.634;5.566;2022-08-19T12:57:08;30.08;;;18.58;;
62268;SDS011;56517;51.634;5.566;2022-08-19T13:02:09;32.83;;;17.30;;
62268;SDS011;56517;51.634;5.566;2022-08-19T13:07:10;31.48;;;17.58;;
62268;SDS011;56517;51.634;5.566;2022-08-19T13:12:12;32.88;;;19.50;;
62268;SDS011;56517;51.634;5.566;2022-08-19T13:17:12;33.60;;;19.95;;
62268;SDS011;56517;51.634;5.566;2022-08-19T13:22:13;36.72;;;22.25;;
62268;SDS011;56517;51.634;5.566;2022-08-19T13:27:15;36.35;;;21.02;;
62268;SDS011;56517;51.634;5.566;2022-08-19T13:32:15;37.28;;;20.20;;
62268;SDS011;56517;51.634;5.566;2022-08-19T13:37:16;39.25;;;22.08;;
62268;SDS011;56517;51.634;5.566;2022-08-19T13:42:18;35.08;;;21.65;;
62268;SDS011;56517;51.634;5.566;2022-08-19T13:47:18;38.80;;;23.13;;
62268;SDS011;56517;51.634;5.566;2022-08-19T13:52:19;35.83;;;22.08;;
62268;SDS011;56517;51.634;5.566;2022-08-19T13:57:21;46.55;;;23.88;;
62268;SDS011;56517;51.634;5.566;2022-08-19T14:02:21;39.28;;;22.17;;
62268;SDS011;56517;51.634;5.566;2022-08-19T14:07:22;39.88;;;23.08;;
62268;SDS011;56517;51.634;5.566;2022-08-19T14:12:24;37.42;;;23.58;;
62268;SDS011;56517;51.634;5.566;2022-08-19T14:17:24;35.90;;;19.25;;
62268;SDS011;56517;51.634;5.566;2022-08-19T14:22:25;41.25;;;20.20;;
62268;SDS011;56517;51.634;5.566;2022-08-19T14:27:27;35.33;;;18.75;;
62268;SDS011;56517;51.634;5.566;2022-08-19T14:32:27;31.90;;;18.67;;
62268;SDS011;56517;51.634;5.566;2022-08-19T14:37:28;30.60;;;17.98;;
62268;SDS011;56517;51.634;5.566;2022-08-19T14:42:30;37.42;;;21.08;;
62268;SDS011;56517;51.634;5.566;2022-08-19T14:47:32;29.40;;;16.35;;
62268;SDS011;56517;51.634;5.566;2022-08-19T14:52:32;27.40;;;15.52;;
62268;SDS011;56517;51.634;5.566;2022-08-19T14:57:34;24.17;;;14.57;;
62268;SDS011;56517;51.634;5.566;2022-08-19T15:02:35;27.13;;;16.30;;
62268;SDS011;56517;51.634;5.566;2022-08-19T15:07:36;25.77;;;14.93;;
62268;SDS011;56517;51.634;5.566;2022-08-19T15:12:38;22.02;;;14.00;;
62268;SDS011;56517;51.634;5.566;2022-08-19T15:17:38;22.38;;;13.70;;
62268;SDS011;56517;51.634;5.566;2022-08-19T15:22:39;21.25;;;13.18;;
62268;SDS011;56517;51.634;5.566;2022-08-19T15:27:42;23.23;;;14.57;;
62268;SDS011;56517;51.634;5.566;2022-08-19T15:32:42;27.00;;;15.60;;
62268;SDS011;56517;51.634;5.566;2022-08-19T15:37:43;24.70;;;14.93;;
62268;SDS011;56517;51.634;5.566;2022-08-19T15:42:45;25.20;;;15.45;;
62268;SDS011;56517;51.634;5.566;2022-08-19T15:47:46;30.38;;;16.33;;
62268;SDS011;56517;51.634;5.566;2022-08-19T15:52:47;28.20;;;15.90;;
62268;SDS011;56517;51.634;5.566;2022-08-19T15:57:49;30.83;;;16.02;;
62268;SDS011;56517;51.634;5.566;2022-08-19T16:02:50;29.95;;;16.77;;
62268;SDS011;56517;51.634;5.566;2022-08-19T16:07:51;32.55;;;14.18;;
62268;SDS011;56517;51.634;5.566;2022-08-19T16:12:53;25.35;;;13.70;;
62268;SDS011;56517;51.634;5.566;2022-08-19T16:17:53;23.58;;;12.68;;
62268;SDS011;56517;51.634;5.566;2022-08-19T16:22:54;25.60;;;13.18;;
62268;SDS011;56517;51.634;5.566;2022-08-19T16:27:57;25.45;;;12.40;;
62268;SDS011;56517;51.634;5.566;2022-08-19T16:32:58;25.50;;;13.82;;
62268;SDS011;56517;51.634;5.566;2022-08-19T16:37:58;28.45;;;12.73;;
62268;SDS011;56517;51.634;5.566;2022-08-19T16:43:00;26.73;;;13.60;;
62268;SDS011;56517;51.634;5.566;2022-08-19T16:48:01;29.00;;;14.05;;
62268;SDS011;56517;51.634;5.566;2022-08-19T16:53:01;27.73;;;13.68;;
62268;SDS011;56517;51.634;5.566;2022-08-19T16:58:03;24.20;;;12.38;;
62268;SDS011;56517;51.634;5.566;2022-08-19T17:03:04;27.00;;;13.07;;
62268;SDS011;56517;51.634;5.566;2022-08-19T17:08:05;23.30;;;12.90;;
62268;SDS011;56517;51.634;5.566;2022-08-19T17:13:08;24.00;;;12.93;;
62268;SDS011;56517;51.634;5.566;2022-08-19T17:18:09;28.45;;;13.85;;
62268;SDS011;56517;51.634;5.566;2022-08-19T17:23:10;24.17;;;14.05;;
62268;SDS011;56517;51.634;5.566;2022-08-19T17:28:13;25.55;;;13.85;;
62268;SDS011;56517;51.634;5.566;2022-08-19T17:33:14;23.42;;;13.25;;
62268;SDS011;56517;51.634;5.566;2022-08-19T17:38:15;22.73;;;13.18;;
62268;SDS011;56517;51.634;5.566;2022-08-19T17:43:18;20.95;;;12.43;;
62268;SDS011;56517;51.634;5.566;2022-08-19T17:48:19;27.05;;;12.02;;
62268;SDS011;56517;51.634;5.566;2022-08-19T17:53:20;20.35;;;11.98;;
62268;SDS011;56517;51.634;5.566;2022-08-19T17:58:22;24.90;;;13.55;;
62268;SDS011;56517;51.634;5.566;2022-08-19T18:03:22;23.48;;;13.00;;
62268;SDS011;56517;51.634;5.566;2022-08-19T18:08:23;20.05;;;12.27;;
62268;SDS011;56517;51.634;5.566;2022-08-19T18:13:25;24.15;;;13.52;;
62268;SDS011;56517;51.634;5.566;2022-08-19T18:18:25;24.40;;;13.90;;
62268;SDS011;56517;51.634;5.566;2022-08-19T18:23:26;26.30;;;13.80;;
62268;SDS011;56517;51.634;5.566;2022-08-19T18:28:28;26.10;;;14.15;;
62268;SDS011;56517;51.634;5.566;2022-08-19T18:33:28;24.45;;;13.43;;
62268;SDS011;56517;51.634;5.566;2022-08-19T18:38:29;24.25;;;12.80;;
62268;SDS011;56517;51.634;5.566;2022-08-19T18:43:31;22.83;;;11.90;;
62268;SDS011;56517;51.634;5.566;2022-08-19T18:48:32;22.58;;;11.48;;
62268;SDS011;56517;51.634;5.566;2022-08-19T18:53:33;20.38;;;12.18;;
62268;SDS011;56517;51.634;5.566;2022-08-19T18:58:36;23.88;;;11.60;;
62268;SDS011;56517;51.634;5.566;2022-08-19T19:03:37;21.38;;;11.32;;
62268;SDS011;56517;51.634;5.566;2022-08-19T19:08:39;18.75;;;11.38;;
62268;SDS011;56517;51.634;5.566;2022-08-19T19:13:40;19.80;;;10.82;;
62268;SDS011;56517;51.634;5.566;2022-08-19T19:18:41;19.33;;;11.30;;
62268;SDS011;56517;51.634;5.566;2022-08-19T19:23:42;19.73;;;11.98;;
62268;SDS011;56517;51.634;5.566;2022-08-19T19:28:44;19.92;;;11.65;;
62268;SDS011;56517;51.634;5.566;2022-08-19T19:33:44;20.60;;;12.68;;
62268;SDS011;56517;51.634;5.566;2022-08-19T19:38:45;19.02;;;11.52;;
62268;SDS011;56517;51.634;5.566;2022-08-19T19:43:47;21.23;;;11.75;;
62268;SDS011;56517;51.634;5.566;2022-08-19T19:48:47;21.98;;;12.20;;
62268;SDS011;56517;51.634;5.566;2022-08-19T19:53:48;19.95;;;12.88;;
62268;SDS011;56517;51.634;5.566;2022-08-19T19:58:50;23.83;;;12.35;;
62268;SDS011;56517;51.634;5.566;2022-08-19T20:03:51;19.77;;;12.15;;
62268;SDS011;56517;51.634;5.566;2022-08-19T20:08:51;23.23;;;13.10;;
62268;SDS011;56517;51.634;5.566;2022-08-19T20:13:53;18.30;;;10.63;;
62268;SDS011;56517;51.634;5.566;2022-08-19T20:18:54;22.38;;;12.45;;
62268;SDS011;56517;51.634;5.566;2022-08-19T20:23:54;18.98;;;11.63;;
62268;SDS011;56517;51.634;5.566;2022-08-19T20:28:56;20.30;;;11.63;;
62268;SDS011;56517;51.634;5.566;2022-08-19T20:33:57;16.63;;;10.52;;
62268;SDS011;56517;51.634;5.566;2022-08-19T20:38:57;21.25;;;11.23;;
62268;SDS011;56517;51.634;5.566;2022-08-19T20:43:59;18.75;;;10.70;;
62268;SDS011;56517;51.634;5.566;2022-08-19T20:49:00;19.33;;;10.32;;
62268;SDS011;56517;51.634;5.566;2022-08-19T20:54:01;19.52;;;11.13;;
62268;SDS011;56517;51.634;5.566;2022-08-19T20:59:03;19.85;;;11.35;;
62268;SDS011;56517;51.634;5.566;2022-08-19T21:04:03;20.92;;;10.82;;
62268;SDS011;56517;51.634;5.566;2022-08-19T21:09:04;19.80;;;11.43;;
62268;SDS011;56517;51.634;5.566;2022-08-19T21:14:06;18.17;;;10.95;;
62268;SDS011;56517;51.634;5.566;2022-08-19T21:19:07;16.45;;;9.88;;
62268;SDS011;56517;51.634;5.566;2022-08-19T21:24:08;18.52;;;9.80;;
62268;SDS011;56517;51.634;5.566;2022-08-19T21:29:09;23.98;;;10.77;;
62268;SDS011;56517;51.634;5.566;2022-08-19T21:34:10;18.35;;;10.07;;
62268;SDS011;56517;51.634;5.566;2022-08-19T21:39:11;18.75;;;10.50;;
62268;SDS011;56517;51.634;5.566;2022-08-19T21:44:13;21.88;;;10.27;;
62268;SDS011;56517;51.634;5.566;2022-08-19T21:49:13;19.70;;;10.10;;
62268;SDS011;56517;51.634;5.566;2022-08-19T21:54:14;23.08;;;11.25;;
62268;SDS011;56517;51.634;5.566;2022-08-19T21:59:16;18.85;;;11.02;;
62268;SDS011;56517;51.634;5.566;2022-08-19T22:04:16;21.42;;;10.25;;
62268;SDS011;56517;51.634;5.566;2022-08-19T22:09:17;21.88;;;11.93;;
62268;SDS011;56517;51.634;5.566;2022-08-19T22:14:19;19.08;;;10.85;;
62268;SDS011;56517;51.634;5.566;2022-08-19T22:19:19;18.73;;;11.02;;
62268;SDS011;56517;51.634;5.566;2022-08-19T22:24:20;19.58;;;11.65;;
62268;SDS011;56517;51.634;5.566;2022-08-19T22:29:22;18.55;;;10.95;;
62268;SDS011;56517;51.634;5.566;2022-08-19T22:34:22;20.40;;;11.85;;
62268;SDS011;56517;51.634;5.566;2022-08-19T22:39:23;15.85;;;9.90;;
62268;SDS011;56517;51.634;5.566;2022-08-19T22:44:25;19.65;;;10.98;;
62268;SDS011;56517;51.634;5.566;2022-08-19T22:49:26;16.85;;;10.13;;
62268;SDS011;56517;51.634;5.566;2022-08-19T22:54:26;16.23;;;9.45;;
62268;SDS011;56517;51.634;5.566;2022-08-19T22:59:28;22.33;;;11.32;;
62268;SDS011;56517;51.634;5.566;2022-08-19T23:04:29;16.52;;;9.55;;
62268;SDS011;56517;51.634;5.566;2022-08-19T23:09:29;20.67;;;10.18;;
62268;SDS011;56517;51.634;5.566;2022-08-19T23:14:31;21.20;;;10.77;;
62268;SDS011;56517;51.634;5.566;2022-08-19T23:19:32;18.98;;;10.10;;
62268;SDS011;56517;51.634;5.566;2022-08-19T23:24:32;18.13;;;10.30;;
62268;SDS011;56517;51.634;5.566;2022-08-19T23:29:34;20.65;;;11.10;;
62268;SDS011;56517;51.634;5.566;2022-08-19T23:34:35;17.17;;;10.65;;
62268;SDS011;56517;51.634;5.566;2022-08-19T23:39:35;17.50;;;10.18;;
62268;SDS011;56517;51.634;5.566;2022-08-19T23:44:37;21.00;;;9.88;;
62268;SDS011;56517;51.634;5.566;2022-08-19T23:49:38;18.27;;;8.88;;
62268;SDS011;56517;51.634;5.566;2022-08-19T23:54:39;13.82;;;9.20;;
62268;SDS011;56517;51.634;5.566;2022-08-19T23:59:40;17.23;;;10.25;;
